Time;durP1;ratioP1;P1;durP2;ratioP2;P2;SDS_P1;SDS_P2;PMS_P1;PMS_P2;Temp;Humidity;BMP_temperature;BMP_pressure;BME280_temperature;BME280_humidity;BME280_pressure;Samples;Min_cycle;Max_cycle;Signal;HPM_P1;HPM_P2
2021/08/31 00:01:21;;;;;;;1.75;1.63;;;15.00;83.30;;;;;;5065977;28;20187;-73
2021/08/31 00:03:47;;;;;;;2.08;1.95;;;15.00;83.50;;;;;;5072131;28;20236;-72
2021/08/31 00:06:12;;;;;;;2.13;2.00;;;14.90;82.80;;;;;;5078826;28;20210;-75
2021/08/31 00:08:38;;;;;;;2.28;1.88;;;14.90;82.40;;;;;;5071907;28;20583;-74
2021/08/31 00:11:04;;;;;;;1.90;1.80;;;14.80;82.50;;;;;;5067031;28;20190;-74
2021/08/31 00:13:30;;;;;;;1.95;1.95;;;14.80;82.30;;;;;;5069319;28;20982;-74
2021/08/31 00:15:55;;;;;;;2.22;2.03;;;14.80;82.40;;;;;;5065601;28;20186;-74
2021/08/31 00:18:21;;;;;;;1.77;1.77;;;14.70;82.30;;;;;;5073237;28;20178;-74
2021/08/31 00:20:47;;;;;;;1.85;1.75;;;14.70;82.60;;;;;;5070092;28;20260;-72
2021/08/31 00:23:13;;;;;;;1.60;1.60;;;14.70;82.90;;;;;;5051919;28;20274;-71
2021/08/31 00:25:39;;;;;;;1.95;1.88;;;14.70;83.40;;;;;;5067684;28;20638;-74
2021/08/31 00:28:05;;;;;;;1.67;1.58;;;14.70;83.60;;;;;;5072014;28;20197;-73
2021/08/31 00:30:31;;;;;;;5.43;2.33;;;14.70;83.90;;;;;;5068489;28;20174;-74
2021/08/31 00:32:56;;;;;;;4.22;2.10;;;14.70;84.10;;;;;;5070349;28;20179;-73
2021/08/31 00:35:22;;;;;;;1.77;1.67;;;14.70;84.20;;;;;;5063668;28;20182;-74
2021/08/31 00:37:48;;;;;;;2.22;2.13;;;14.60;83.90;;;;;;5070396;28;20189;-74
2021/08/31 00:40:14;;;;;;;2.10;1.92;;;14.60;84.20;;;;;;5067659;28;20167;-73
2021/08/31 00:42:39;;;;;;;1.80;1.70;;;14.60;84.40;;;;;;5067238;28;20214;-74
2021/08/31 00:45:06;;;;;;;2.13;2.03;;;14.60;84.50;;;;;;5072353;28;20206;-74
2021/08/31 00:47:31;;;;;;;2.08;1.98;;;14.60;84.40;;;;;;5071851;28;20237;-75
2021/08/31 00:49:57;;;;;;;3.60;1.92;;;14.60;84.20;;;;;;5064737;28;20645;-74
2021/08/31 00:52:23;;;;;;;2.15;2.05;;;14.60;84.50;;;;;;5074400;28;20267;-73
2021/08/31 00:54:49;;;;;;;2.30;2.10;;;14.60;84.60;;;;;;5066134;28;20790;-73
2021/08/31 00:57:15;;;;;;;1.70;1.60;;;14.50;84.60;;;;;;5063811;28;20237;-74
2021/08/31 00:59:42;;;;;;;1.83;1.73;;;14.50;84.60;;;;;;5066124;28;20271;-73
2021/08/31 01:02:07;;;;;;;1.80;1.80;;;14.50;84.90;;;;;;5068577;28;20192;-74
2021/08/31 01:04:33;;;;;;;2.17;2.10;;;14.50;85.20;;;;;;5069315;28;20190;-73
2021/08/31 01:07:00;;;;;;;2.05;1.95;;;14.50;84.40;;;;;;5067269;28;20293;-74
2021/08/31 01:09:27;;;;;;;3.28;2.05;;;14.50;84.40;;;;;;5064732;28;20174;-74
2021/08/31 01:11:54;;;;;;;3.78;1.50;;;14.50;84.60;;;;;;5075741;28;20186;-73
2021/08/31 01:14:21;;;;;;;2.80;1.75;;;14.50;84.50;;;;;;5076310;28;20190;-73
2021/08/31 01:16:48;;;;;;;2.50;2.40;;;14.40;84.80;;;;;;5070582;28;20178;-73
2021/08/31 01:19:15;;;;;;;2.35;2.25;;;14.40;85.20;;;;;;5077778;28;20202;-74
2021/08/31 01:21:40;;;;;;;2.13;2.03;;;14.40;85.40;;;;;;5065291;28;20256;-74
2021/08/31 01:24:06;;;;;;;2.67;2.58;;;14.40;85.80;;;;;;5071427;28;20266;-73
2021/08/31 01:26:32;;;;;;;2.10;2.00;;;14.40;86.10;;;;;;5073693;28;20684;-73
2021/08/31 01:29:04;;;;;;;2.55;2.45;;;14.40;86.10;;;;;;5069263;28;20186;-73
2021/08/31 01:31:30;;;;;;;2.15;2.05;;;14.30;86.10;;;;;;5074232;28;20179;-73
2021/08/31 01:33:55;;;;;;;3.05;2.63;;;14.30;86.40;;;;;;5074801;28;20546;-72
2021/08/31 01:36:24;;;;;;;2.10;2.00;;;14.30;86.20;;;;;;5070869;28;20194;-73
2021/08/31 01:38:52;;;;;;;2.55;2.38;;;14.30;86.90;;;;;;5073946;28;20250;-74
2021/08/31 01:41:18;;;;;;;3.58;3.00;;;14.30;86.80;;;;;;5068823;28;20611;-74
2021/08/31 01:43:44;;;;;;;5.13;2.45;;;14.30;87.10;;;;;;5063030;28;20183;-74
2021/08/31 01:46:10;;;;;;;2.80;2.58;;;14.30;87.10;;;;;;5071173;28;20600;-73
2021/08/31 01:48:37;;;;;;;2.08;1.98;;;14.30;86.70;;;;;;5069816;28;20189;-73
2021/08/31 01:51:03;;;;;;;2.65;2.10;;;14.20;86.70;;;;;;5070609;28;20191;-73
2021/08/31 01:53:29;;;;;;;2.60;2.50;;;14.20;86.50;;;;;;5072786;28;20259;-73
2021/08/31 01:55:55;;;;;;;2.13;2.03;;;14.20;86.90;;;;;;5070598;28;20195;-74
2021/08/31 01:58:21;;;;;;;5.07;3.38;;;14.20;87.00;;;;;;5080125;28;20191;-74
2021/08/31 02:00:47;;;;;;;8.65;5.00;;;14.20;87.10;;;;;;5061381;28;20275;-74
2021/08/31 02:03:13;;;;;;;10.43;5.85;;;14.20;87.50;;;;;;5066607;28;20244;-74
2021/08/31 02:05:38;;;;;;;9.77;5.00;;;14.10;87.80;;;;;;5071078;28;20179;-74
2021/08/31 02:08:04;;;;;;;8.70;4.70;;;14.10;87.30;;;;;;5069917;28;20193;-73
2021/08/31 02:10:31;;;;;;;4.53;3.85;;;14.10;87.20;;;;;;5072501;28;20285;-74
2021/08/31 02:12:56;;;;;;;5.70;4.03;;;14.10;87.10;;;;;;5075023;28;20289;-73
2021/08/31 02:15:22;;;;;;;4.28;3.50;;;14.10;88.20;;;;;;5074423;28;20305;-73
2021/08/31 02:17:48;;;;;;;6.82;3.45;;;14.10;88.10;;;;;;5067889;28;20179;-75
2021/08/31 02:20:15;;;;;;;3.40;3.08;;;14.10;88.00;;;;;;5073912;28;20198;-73
2021/08/31 02:22:42;;;;;;;3.03;2.83;;;14.10;87.90;;;;;;5071847;28;20183;-73
2021/08/31 02:25:08;;;;;;;5.18;2.70;;;14.10;88.30;;;;;;5074621;28;20255;-73
2021/08/31 02:27:34;;;;;;;4.88;2.63;;;14.00;88.60;;;;;;5070427;28;20268;-73
2021/08/31 02:30:00;;;;;;;4.88;2.50;;;14.00;88.30;;;;;;5077351;28;20181;-73
2021/08/31 02:32:26;;;;;;;3.10;2.78;;;14.00;88.20;;;;;;5074249;28;20178;-73
2021/08/31 02:34:52;;;;;;;2.60;2.50;;;14.00;88.10;;;;;;5069818;28;20222;-73
2021/08/31 02:37:18;;;;;;;2.67;2.55;;;14.00;88.20;;;;;;5069446;28;20183;-73
2021/08/31 02:39:43;;;;;;;2.72;2.58;;;14.00;88.40;;;;;;5072768;28;20174;-73
2021/08/31 02:42:09;;;;;;;5.18;2.45;;;13.90;88.10;;;;;;5074767;28;20886;-73
2021/08/31 02:44:35;;;;;;;2.70;2.50;;;13.90;88.70;;;;;;5067219;28;20653;-74
2021/08/31 02:47:01;;;;;;;2.47;2.42;;;13.90;88.90;;;;;;5063761;28;20579;-73
2021/08/31 02:49:26;;;;;;;2.50;2.30;;;13.90;89.00;;;;;;5069192;28;20190;-73
2021/08/31 02:51:52;;;;;;;3.53;2.40;;;13.90;88.90;;;;;;5070143;28;20682;-74
2021/08/31 02:54:18;;;;;;;2.40;2.30;;;13.80;88.60;;;;;;5074122;28;20217;-73
2021/08/31 02:56:44;;;;;;;6.70;3.00;;;13.80;88.80;;;;;;5068739;28;20182;-73
2021/08/31 02:59:10;;;;;;;2.22;2.13;;;13.80;88.70;;;;;;5064583;28;20249;-73
2021/08/31 03:02:04;;;;;;;3.05;2.72;;;13.80;88.60;;;;;;5071357;28;20186;-73
2021/08/31 03:04:24;;;;;;;2.95;2.58;;;13.70;88.50;;;;;;5073077;28;20190;-73
2021/08/31 03:06:50;;;;;;;2.67;2.47;;;13.70;89.10;;;;;;5074575;28;20209;-73
2021/08/31 03:09:15;;;;;;;2.55;2.45;;;13.70;89.20;;;;;;5070335;28;20202;-73
2021/08/31 03:11:41;;;;;;;3.75;3.25;;;13.70;89.30;;;;;;5078030;28;20182;-74
2021/08/31 03:14:07;;;;;;;2.83;2.72;;;13.60;89.20;;;;;;5062878;28;20194;-74
2021/08/31 03:16:33;;;;;;;3.70;2.95;;;13.60;89.20;;;;;;5065953;28;20192;-74
2021/08/31 03:18:59;;;;;;;3.03;2.70;;;13.60;89.60;;;;;;5071542;28;20641;-73
2021/08/31 03:21:25;;;;;;;2.88;2.67;;;13.60;89.50;;;;;;5067830;28;20180;-73
2021/08/31 03:23:50;;;;;;;2.67;2.47;;;13.50;89.50;;;;;;5076463;28;21946;-73
2021/08/31 03:26:16;;;;;;;2.92;2.72;;;13.50;89.40;;;;;;5072929;28;20216;-74
2021/08/31 03:28:42;;;;;;;3.60;2.63;;;13.50;89.30;;;;;;5072969;28;20189;-74
2021/08/31 03:31:08;;;;;;;2.67;2.58;;;13.50;89.60;;;;;;5067347;28;21133;-73
2021/08/31 03:33:33;;;;;;;2.95;2.75;;;13.40;89.40;;;;;;5075798;28;20240;-74
2021/08/31 03:35:59;;;;;;;4.20;2.60;;;13.40;89.50;;;;;;5072770;28;20198;-73
2021/08/31 03:38:25;;;;;;;3.53;3.22;;;13.40;89.60;;;;;;5074439;28;20178;-73
2021/08/31 03:40:51;;;;;;;2.78;2.67;;;13.40;89.70;;;;;;5066008;28;20188;-73
2021/08/31 03:43:17;;;;;;;3.13;2.95;;;13.30;90.00;;;;;;5068432;28;20182;-73
2021/08/31 03:45:42;;;;;;;3.00;2.80;;;13.30;89.90;;;;;;5074560;28;20187;-74
2021/08/31 03:48:08;;;;;;;2.92;2.72;;;13.30;90.10;;;;;;5072556;28;20190;-73
2021/08/31 03:50:34;;;;;;;3.60;3.30;;;13.30;89.70;;;;;;5066797;28;20245;-74
2021/08/31 03:53:00;;;;;;;2.95;2.75;;;13.30;89.40;;;;;;5067289;28;20186;-74
2021/08/31 03:55:26;;;;;;;2.72;2.63;;;13.30;89.60;;;;;;5074382;28;20178;-74
2021/08/31 03:57:51;;;;;;;2.42;2.33;;;13.30;89.70;;;;;;5074402;28;20182;-73
2021/08/31 04:00:17;;;;;;;2.75;2.55;;;13.30;89.80;;;;;;5068375;28;20190;-74
2021/08/31 04:02:43;;;;;;;3.03;2.83;;;13.30;89.90;;;;;;5070186;28;20187;-73
2021/08/31 04:05:09;;;;;;;5.00;2.97;;;13.30;90.50;;;;;;5069874;28;20229;-74
2021/08/31 04:07:35;;;;;;;2.60;2.50;;;13.30;90.20;;;;;;5071570;28;20279;-74
2021/08/31 04:10:01;;;;;;;2.72;2.55;;;13.30;90.10;;;;;;5070634;28;20183;-74
2021/08/31 04:12:26;;;;;;;2.35;2.25;;;13.30;90.10;;;;;;5073992;28;20170;-74
2021/08/31 04:14:52;;;;;;;2.13;2.03;;;13.30;90.30;;;;;;5066014;28;20188;-73
2021/08/31 04:17:18;;;;;;;2.80;2.60;;;13.40;90.40;;;;;;5062697;28;20259;-73
2021/08/31 04:19:43;;;;;;;4.25;3.00;;;13.40;90.30;;;;;;5066682;28;20198;-73
2021/08/31 04:22:09;;;;;;;2.40;2.30;;;13.40;90.20;;;;;;5065186;28;20183;-73
2021/08/31 04:24:36;;;;;;;6.95;2.92;;;13.40;90.00;;;;;;5067998;28;20183;-73
2021/08/31 04:27:03;;;;;;;2.88;2.63;;;13.40;90.10;;;;;;5074988;28;20233;-73
2021/08/31 04:29:28;;;;;;;2.10;2.00;;;13.40;90.30;;;;;;5068593;28;20191;-73
2021/08/31 04:31:54;;;;;;;2.22;2.10;;;13.40;90.30;;;;;;5074251;28;20183;-73
2021/08/31 04:34:20;;;;;;;2.55;2.45;;;13.40;90.20;;;;;;5068336;28;20270;-73
2021/08/31 04:36:46;;;;;;;2.10;1.98;;;13.40;90.00;;;;;;5067029;28;20194;-70
2021/08/31 04:39:11;;;;;;;2.63;2.42;;;13.40;89.90;;;;;;5066093;28;20198;-70
2021/08/31 04:41:37;;;;;;;1.98;1.95;;;13.50;90.10;;;;;;5068178;28;20190;-71
2021/08/31 04:44:03;;;;;;;3.40;3.05;;;13.50;90.10;;;;;;5068533;28;20179;-70
2021/08/31 04:46:29;;;;;;;5.53;2.60;;;13.50;90.10;;;;;;5070382;28;20289;-70
2021/08/31 04:48:54;;;;;;;4.18;2.53;;;13.50;90.20;;;;;;5058541;28;20194;-72
2021/08/31 04:51:20;;;;;;;2.80;2.47;;;13.50;90.00;;;;;;5068283;28;20242;-72
2021/08/31 04:53:46;;;;;;;2.40;2.30;;;13.50;89.80;;;;;;5062016;28;20183;-73
2021/08/31 04:56:11;;;;;;;2.50;2.40;;;13.60;89.70;;;;;;5064876;28;20191;-72
2021/08/31 04:58:37;;;;;;;2.10;2.00;;;13.60;89.40;;;;;;5066250;28;20182;-73
2021/08/31 05:01:03;;;;;;;2.40;2.20;;;13.60;89.40;;;;;;5064704;28;20995;-73
2021/08/31 05:03:29;;;;;;;6.20;2.55;;;13.60;89.50;;;;;;5063223;28;20277;-73
2021/08/31 05:05:55;;;;;;;3.25;2.80;;;13.60;89.40;;;;;;5064425;28;20186;-73
2021/08/31 05:08:21;;;;;;;2.55;2.35;;;13.70;89.30;;;;;;5067534;28;20187;-72
2021/08/31 05:10:48;;;;;;;2.33;2.22;;;13.70;89.30;;;;;;5069489;28;20212;-77
2021/08/31 05:13:14;;;;;;;5.68;2.72;;;13.80;89.10;;;;;;5079340;28;20643;-78
2021/08/31 05:15:40;;;;;;;4.05;3.10;;;13.80;89.10;;;;;;5076822;28;20202;-78
2021/08/31 05:18:05;;;;;;;3.63;3.42;;;13.80;89.00;;;;;;5064973;28;20244;-78
2021/08/31 05:20:32;;;;;;;3.95;3.42;;;13.90;88.80;;;;;;5065349;28;20184;-76
2021/08/31 05:23:00;;;;;;;3.53;3.22;;;13.90;88.80;;;;;;5069351;28;20190;-72
2021/08/31 05:25:26;;;;;;;3.38;3.17;;;14.00;88.70;;;;;;5066499;28;20213;-72
2021/08/31 05:27:53;;;;;;;4.07;3.63;;;14.00;88.70;;;;;;5072200;28;20215;-72
2021/08/31 05:30:19;;;;;;;3.78;3.30;;;14.10;88.60;;;;;;5068957;28;20660;-73
2021/08/31 05:32:44;;;;;;;3.53;3.22;;;14.10;88.60;;;;;;5062721;28;20190;-72
2021/08/31 05:35:11;;;;;;;3.03;2.85;;;14.20;88.30;;;;;;5074951;28;20190;-75
2021/08/31 05:37:39;;;;;;;2.42;2.33;;;14.20;88.20;;;;;;5069122;28;20174;-75
2021/08/31 05:40:07;;;;;;;3.28;3.08;;;14.20;87.10;;;;;;5068736;28;20554;-76
2021/08/31 05:42:32;;;;;;;3.38;2.72;;;14.20;87.40;;;;;;5068405;28;20190;-77
2021/08/31 05:44:59;;;;;;;4.25;3.40;;;14.30;87.60;;;;;;5066545;28;20183;-76
2021/08/31 05:47:25;;;;;;;4.55;3.42;;;14.30;87.10;;;;;;5068960;28;20234;-75
2021/08/31 05:49:50;;;;;;;5.15;3.38;;;14.30;87.00;;;;;;5061749;28;20202;-74
2021/08/31 05:52:16;;;;;;;3.40;3.15;;;14.40;86.90;;;;;;5060796;28;20175;-74
2021/08/31 05:54:42;;;;;;;8.63;3.35;;;14.40;86.80;;;;;;5071012;28;20654;-74
2021/08/31 05:57:11;;;;;;;3.25;3.05;;;14.40;86.80;;;;;;5075627;28;20181;-75
2021/08/31 05:59:40;;;;;;;3.28;3.08;;;14.50;87.10;;;;;;5075945;28;20198;-75
2021/08/31 06:02:08;;;;;;;3.50;3.20;;;14.50;86.90;;;;;;5076002;28;20182;-74
2021/08/31 06:04:34;;;;;;;3.63;3.28;;;14.60;86.90;;;;;;5077983;28;20178;-74
2021/08/31 06:07:00;;;;;;;3.97;3.33;;;14.60;86.80;;;;;;5069951;28;20722;-74
2021/08/31 06:09:25;;;;;;;3.50;3.22;;;14.70;86.90;;;;;;5070934;28;20183;-74
2021/08/31 06:11:52;;;;;;;5.35;3.45;;;14.70;86.80;;;;;;5074747;28;20945;-75
2021/08/31 06:14:18;;;;;;;3.40;3.20;;;14.80;86.60;;;;;;5074412;28;20262;-75
2021/08/31 06:16:43;;;;;;;3.67;3.45;;;14.90;86.70;;;;;;5076861;28;20245;-75
2021/08/31 06:19:09;;;;;;;5.57;3.75;;;14.90;86.80;;;;;;5071254;28;20178;-74
2021/08/31 06:21:35;;;;;;;4.15;3.47;;;15.00;86.70;;;;;;5078998;28;20330;-74
2021/08/31 06:24:01;;;;;;;4.05;3.75;;;15.00;87.10;;;;;;5070400;28;20172;-74
2021/08/31 06:26:26;;;;;;;3.88;3.58;;;15.10;87.20;;;;;;5073110;28;20711;-75
2021/08/31 06:28:52;;;;;;;3.90;3.55;;;15.20;87.20;;;;;;5078582;28;20186;-75
2021/08/31 06:31:18;;;;;;;4.80;4.13;;;15.30;87.00;;;;;;5071086;28;20221;-75
2021/08/31 06:33:46;;;;;;;4.47;4.03;;;15.40;86.90;;;;;;5075136;28;20171;-75
2021/08/31 06:36:13;;;;;;;6.78;3.60;;;15.40;86.70;;;;;;5075912;28;20825;-75
2021/08/31 06:38:39;;;;;;;4.47;4.05;;;15.50;86.50;;;;;;5073007;28;20183;-75
2021/08/31 06:41:06;;;;;;;4.85;4.43;;;15.60;86.20;;;;;;5070230;28;20236;-75
2021/08/31 06:43:32;;;;;;;4.78;4.38;;;15.70;85.50;;;;;;5070925;28;20277;-75
2021/08/31 06:45:58;;;;;;;4.75;4.28;;;15.80;85.40;;;;;;5071555;28;20573;-74
2021/08/31 06:48:24;;;;;;;6.50;4.60;;;15.80;85.40;;;;;;5067661;28;20191;-75
2021/08/31 06:50:49;;;;;;;5.93;4.15;;;15.90;85.40;;;;;;5071226;28;20186;-74
2021/08/31 06:53:15;;;;;;;6.40;4.25;;;16.00;84.90;;;;;;5072737;28;20175;-76
2021/08/31 06:55:41;;;;;;;4.90;4.40;;;16.10;84.70;;;;;;5074575;28;20205;-76
2021/08/31 06:58:08;;;;;;;4.38;3.97;;;16.20;84.60;;;;;;5067130;28;20183;-76
2021/08/31 07:00:34;;;;;;;4.10;3.78;;;16.20;84.40;;;;;;5069221;28;20787;-76
2021/08/31 07:03:00;;;;;;;4.57;4.18;;;16.30;84.30;;;;;;5067159;28;20179;-77
2021/08/31 07:05:26;;;;;;;5.68;4.55;;;16.40;84.40;;;;;;5070985;28;20180;-76
2021/08/31 07:07:52;;;;;;;5.25;4.28;;;16.40;84.30;;;;;;5076455;28;20214;-76
2021/08/31 07:10:18;;;;;;;7.82;3.97;;;16.50;83.90;;;;;;5066687;28;20981;-74
2021/08/31 07:12:43;;;;;;;9.15;4.82;;;16.60;83.60;;;;;;5076732;28;20191;-74
2021/08/31 07:15:10;;;;;;;4.95;4.45;;;16.70;83.50;;;;;;5071506;28;20577;-76
2021/08/31 07:17:36;;;;;;;4.63;4.22;;;16.80;83.30;;;;;;5069162;28;20194;-75
2021/08/31 07:20:04;;;;;;;12.30;4.45;;;16.80;83.00;;;;;;5074186;28;20167;-75
2021/08/31 07:22:29;;;;;;;5.40;4.72;;;16.90;82.90;;;;;;5077177;28;20182;-75
2021/08/31 07:24:55;;;;;;;8.82;4.90;;;17.00;82.60;;;;;;5071493;28;20182;-75
2021/08/31 07:27:21;;;;;;;5.03;4.53;;;17.00;82.50;;;;;;5076930;28;20919;-75
2021/08/31 07:29:46;;;;;;;5.40;4.80;;;17.10;82.40;;;;;;5068086;28;20183;-75
2021/08/31 07:32:12;;;;;;;8.25;4.82;;;17.20;82.40;;;;;;5066347;28;20188;-75
2021/08/31 07:34:39;;;;;;;6.75;4.97;;;17.30;82.10;;;;;;5068864;28;20182;-75
2021/08/31 07:37:06;;;;;;;7.40;5.60;;;17.30;81.90;;;;;;5067041;28;20278;-75
2021/08/31 07:39:32;;;;;;;5.03;4.63;;;17.40;81.70;;;;;;5058024;28;20676;-74
2021/08/31 07:41:58;;;;;;;6.03;5.43;;;17.50;81.20;;;;;;5060635;28;20199;-75
2021/08/31 07:44:23;;;;;;;6.90;5.20;;;17.60;81.30;;;;;;5063716;28;20182;-75
2021/08/31 07:46:51;;;;;;;9.93;5.72;;;17.70;81.20;;;;;;5064788;28;20256;-74
2021/08/31 07:49:18;;;;;;;9.43;5.88;;;17.80;81.00;;;;;;5066016;28;20177;-75
2021/08/31 07:51:45;;;;;;;7.28;5.32;;;17.90;80.90;;;;;;5060682;28;20203;-72
2021/08/31 07:54:11;;;;;;;5.85;5.35;;;18.00;80.70;;;;;;5069365;28;20328;-72
2021/08/31 07:56:37;;;;;;;8.20;5.45;;;18.10;80.60;;;;;;5067732;28;20220;-76
2021/08/31 07:59:04;;;;;;;5.53;5.03;;;18.20;80.60;;;;;;5062083;28;20179;-76
2021/08/31 08:01:30;;;;;;;6.13;4.80;;;18.30;79.70;;;;;;5061867;28;20325;-77
2021/08/31 08:03:57;;;;;;;7.50;4.85;;;18.40;79.20;;;;;;5069989;28;20175;-76
2021/08/31 08:06:23;;;;;;;7.15;5.00;;;18.50;79.00;;;;;;5058903;28;20207;-75
2021/08/31 08:08:49;;;;;;;8.57;4.93;;;18.60;78.90;;;;;;5061306;28;20183;-75
2021/08/31 08:11:15;;;;;;;4.70;4.32;;;18.70;78.70;;;;;;5052193;28;20188;-76
2021/08/31 08:13:41;;;;;;;5.65;5.25;;;18.80;78.90;;;;;;5058471;28;20195;-76
2021/08/31 08:16:06;;;;;;;6.45;4.30;;;18.90;78.00;;;;;;5064953;28;20187;-76
2021/08/31 08:18:32;;;;;;;4.68;4.28;;;19.10;78.30;;;;;;5067372;28;20247;-76
2021/08/31 08:20:58;;;;;;;4.65;4.25;;;19.20;78.10;;;;;;5065027;28;20314;-76
2021/08/31 08:23:24;;;;;;;9.35;3.95;;;19.30;78.00;;;;;;5057267;28;20187;-75
2021/08/31 08:25:50;;;;;;;4.75;4.30;;;19.50;77.80;;;;;;5062670;28;20174;-76
2021/08/31 08:28:17;;;;;;;4.28;3.83;;;19.60;77.20;;;;;;5062398;28;20217;-76
2021/08/31 08:30:43;;;;;;;4.78;3.58;;;19.80;76.50;;;;;;5063594;28;20183;-76
2021/08/31 08:33:08;;;;;;;4.00;3.78;;;19.90;75.70;;;;;;5064298;28;20178;-76
2021/08/31 08:35:34;;;;;;;4.15;3.80;;;20.00;75.50;;;;;;5066298;28;20199;-76
2021/08/31 08:38:01;;;;;;;4.47;3.35;;;20.10;75.50;;;;;;5065893;28;20186;-77
2021/08/31 08:40:27;;;;;;;4.07;3.63;;;20.30;75.70;;;;;;5060828;28;20183;-76
2021/08/31 08:42:53;;;;;;;3.85;3.55;;;20.50;75.60;;;;;;5063270;28;20186;-77
2021/08/31 08:45:20;;;;;;;3.25;3.05;;;20.70;74.80;;;;;;5063734;28;20218;-77
2021/08/31 08:47:46;;;;;;;3.10;3.00;;;20.90;72.20;;;;;;5067842;28;20207;-77
2021/08/31 08:50:12;;;;;;;3.28;3.10;;;21.20;71.20;;;;;;5065736;28;20654;-77
2021/08/31 08:52:38;;;;;;;3.13;2.95;;;21.40;71.00;;;;;;5062338;28;20215;-77
2021/08/31 08:55:09;;;;;;;2.90;2.70;;;21.70;69.50;;;;;;5061155;28;20186;-76
2021/08/31 08:57:35;;;;;;;3.33;3.13;;;22.10;69.50;;;;;;5066469;28;20175;-77
2021/08/31 09:00:01;;;;;;;3.75;2.85;;;22.50;68.40;;;;;;5065020;28;20264;-76
2021/08/31 09:02:37;;;;;;;3.85;2.85;;;23.10;68.70;;;;;;5068327;28;20266;-77
2021/08/31 09:05:07;;;;;;;3.03;2.83;;;23.80;66.80;;;;;;5073399;28;20177;-77
2021/08/31 09:07:38;;;;;;;3.00;2.70;;;24.40;66.90;;;;;;5057661;28;20210;-74
2021/08/31 09:10:14;;;;;;;3.50;3.38;;;25.00;64.60;;;;;;5068380;28;20189;-74
2021/08/31 09:12:41;;;;;;;3.38;3.05;;;25.70;64.10;;;;;;5057723;28;20190;-74
2021/08/31 09:15:28;;;;;;;3.40;3.10;;;26.20;62.10;;;;;;5060432;28;20171;-74
2021/08/31 09:18:07;;;;;;;2.78;2.58;;;26.80;59.10;;;;;;5067389;28;20186;-74
2021/08/31 09:20:35;;;;;;;5.38;2.97;;;27.50;59.80;;;;;;5064769;28;20207;-74
2021/08/31 09:23:06;;;;;;;2.80;2.55;;;28.30;61.00;;;;;;5063140;28;20623;-75
2021/08/31 09:25:35;;;;;;;2.67;2.45;;;29.20;59.00;;;;;;5063770;28;20183;-74
2021/08/31 09:28:02;;;;;;;3.17;2.97;;;30.00;57.30;;;;;;5068855;28;20218;-75
2021/08/31 09:30:30;;;;;;;7.32;3.00;;;30.80;54.10;;;;;;5075653;28;20178;-74
2021/08/31 09:33:09;;;;;;;3.35;3.08;;;31.40;51.80;;;;;;5065551;28;20187;-75
2021/08/31 09:35:38;;;;;;;3.22;2.85;;;31.80;52.80;;;;;;5068072;28;20182;-75
2021/08/31 09:38:09;;;;;;;4.00;2.88;;;32.30;54.40;;;;;;5075189;28;20194;-74
2021/08/31 09:40:41;;;;;;;3.78;3.17;;;32.80;53.50;;;;;;5071381;28;20179;-74
2021/08/31 09:43:12;;;;;;;2.78;2.67;;;33.20;52.60;;;;;;5072022;28;20656;-74
2021/08/31 09:45:40;;;;;;;5.20;3.33;;;33.50;52.40;;;;;;5061766;28;20179;-72
2021/08/31 09:48:08;;;;;;;3.80;2.90;;;34.00;50.40;;;;;;5076233;28;20310;-72
2021/08/31 09:50:42;;;;;;;5.65;3.15;;;34.50;51.10;;;;;;5076551;28;21839;-72
2021/08/31 09:53:15;;;;;;;2.85;2.75;;;35.00;50.20;;;;;;5077827;28;20206;-72
2021/08/31 09:55:50;;;;;;;3.25;2.95;;;35.50;48.60;;;;;;5074125;28;20272;-72
2021/08/31 09:58:21;;;;;;;2.50;2.50;;;36.00;49.70;;;;;;5072016;28;20181;-72
2021/08/31 10:00:49;;;;;;;3.85;2.75;;;36.50;50.30;;;;;;5074100;28;20186;-72
2021/08/31 10:03:16;;;;;;;3.25;3.05;;;36.90;47.50;;;;;;5069552;28;20179;-72
2021/08/31 10:05:44;;;;;;;3.50;2.58;;;36.90;48.20;;;;;;5074130;28;20202;-72
2021/08/31 10:08:10;;;;;;;3.13;2.92;;;36.90;47.60;;;;;;5068488;28;20224;-72
2021/08/31 10:10:38;;;;;;;3.63;2.70;;;37.20;48.10;;;;;;5079791;28;20273;-73
2021/08/31 10:13:12;;;;;;;3.58;3.10;;;37.40;47.50;;;;;;5068329;28;20196;-72
2021/08/31 10:15:44;;;;;;;3.13;2.67;;;37.80;47.20;;;;;;5072921;28;20190;-72
2021/08/31 10:18:11;;;;;;;2.53;2.35;;;38.40;48.00;;;;;;5076459;28;20200;-72
2021/08/31 10:20:50;;;;;;;2.90;2.80;;;38.80;47.00;;;;;;5070770;28;20185;-72
2021/08/31 10:23:23;;;;;;;3.30;2.40;;;39.30;43.80;;;;;;5074708;28;20315;-71
2021/08/31 10:25:49;;;;;;;2.40;2.20;;;39.80;45.80;;;;;;5074513;28;20215;-71
2021/08/31 10:28:27;;;;;;;2.60;2.40;;;40.10;45.50;;;;;;5075495;28;20251;-72
2021/08/31 10:30:55;;;;;;;2.47;2.30;;;40.40;43.10;;;;;;5072090;28;20244;-72
2021/08/31 10:33:38;;;;;;;4.20;3.00;;;40.50;45.40;;;;;;5078068;28;20585;-72
2021/08/31 10:36:07;;;;;;;2.40;2.30;;;40.60;42.50;;;;;;5069731;28;20186;-71
2021/08/31 10:38:49;;;;;;;2.33;2.33;;;40.90;44.40;;;;;;5074898;28;20216;-71
2021/08/31 10:41:43;;;;;;;2.70;2.60;;;41.20;42.70;;;;;;5074388;28;20186;-71
2021/08/31 10:44:28;;;;;;;4.13;2.38;;;41.60;41.40;;;;;;4998081;28;20862;-73
2021/08/31 10:46:57;;;;;;;3.00;2.80;;;41.90;44.30;;;;;;5016429;28;20230;-73
2021/08/31 10:49:24;;;;;;;2.85;2.75;;;42.20;42.50;;;;;;5016020;28;20254;-74
2021/08/31 10:52:02;;;;;;;2.78;2.67;;;42.30;41.20;;;;;;5013925;28;20186;-74
2021/08/31 10:54:47;;;;;;;4.95;2.63;;;42.40;40.50;;;;;;5012112;28;20188;-74
2021/08/31 10:57:39;;;;;;;2.42;2.35;;;42.30;41.00;;;;;;5012680;28;20271;-74
2021/08/31 11:00:25;;;;;;;2.40;2.20;;;42.20;40.00;;;;;;5006118;28;20191;-74
2021/08/31 11:02:59;;;;;;;3.15;2.75;;;42.20;40.30;;;;;;5009850;28;20689;-75
2021/08/31 11:05:27;;;;;;;1.90;1.90;;;42.20;40.90;;;;;;5013743;28;20999;-75
2021/08/31 11:08:00;;;;;;;3.10;2.85;;;41.60;40.60;;;;;;5009660;28;20224;-74
2021/08/31 11:10:31;;;;;;;2.33;2.10;;;41.50;42.40;;;;;;5017073;28;20263;-74
2021/08/31 11:13:06;;;;;;;2.65;2.55;;;41.50;43.10;;;;;;5014086;28;20210;-74
2021/08/31 11:15:32;;;;;;;2.33;2.22;;;41.20;41.20;;;;;;5011824;28;20789;-74
2021/08/31 11:17:58;;;;;;;2.30;2.20;;;40.90;42.60;;;;;;5015119;28;20278;-74
2021/08/31 11:20:31;;;;;;;2.75;2.40;;;41.10;41.90;;;;;;5021333;28;20587;-74
2021/08/31 11:23:03;;;;;;;2.28;2.20;;;41.40;40.10;;;;;;5066710;28;20295;-73
2021/08/31 11:25:33;;;;;;;2.63;2.42;;;41.80;40.90;;;;;;5066044;28;20272;-74
2021/08/31 11:28:11;;;;;;;2.22;2.22;;;42.20;42.50;;;;;;5072941;28;21066;-74
2021/08/31 11:30:57;;;;;;;2.03;1.95;;;42.50;41.00;;;;;;5072657;28;20183;-74
2021/08/31 11:33:38;;;;;;;2.08;2.08;;;42.90;39.70;;;;;;5071727;28;20675;-74
2021/08/31 11:36:05;;;;;;;2.22;2.13;;;43.10;39.10;;;;;;5071629;28;20174;-74
2021/08/31 11:38:43;;;;;;;1.90;1.90;;;43.40;41.10;;;;;;5067045;28;20205;-74
2021/08/31 11:41:26;;;;;;;4.05;1.83;;;43.50;38.70;;;;;;5065117;28;20236;-74
2021/08/31 11:43:53;;;;;;;1.92;1.83;;;43.90;38.60;;;;;;5065224;28;20175;-74
2021/08/31 11:46:27;;;;;;;2.10;1.95;;;44.30;38.70;;;;;;5066624;28;20199;-72
2021/08/31 11:49:18;;;;;;;2.38;2.28;;;44.70;39.40;;;;;;5063604;28;20178;-73
2021/08/31 11:52:01;;;;;;;2.33;2.22;;;45.00;38.40;;;;;;5066788;28;20212;-73
2021/08/31 11:54:32;;;;;;;2.13;2.08;;;44.80;37.60;;;;;;5063522;28;20182;-73
2021/08/31 11:57:04;;;;;;;2.22;2.20;;;43.90;40.70;;;;;;5065833;28;20183;-73
2021/08/31 11:59:43;;;;;;;2.53;2.20;;;43.20;41.70;;;;;;5062443;28;20182;-72
2021/08/31 12:02:18;;;;;;;2.10;1.90;;;42.70;40.40;;;;;;5065948;28;20181;-73
2021/08/31 12:04:55;;;;;;;2.60;2.30;;;42.60;40.20;;;;;;5061464;28;20579;-72
2021/08/31 12:07:47;;;;;;;2.50;2.30;;;42.30;40.30;;;;;;5067326;28;20214;-72
2021/08/31 12:10:24;;;;;;;1.60;1.58;;;42.30;40.50;;;;;;4984032;28;20196;-72
2021/08/31 12:12:51;;;;;;;2.80;2.70;;;42.50;41.20;;;;;;4983218;28;20808;-72
2021/08/31 12:15:23;;;;;;;4.72;2.63;;;42.20;42.40;;;;;;5001834;28;20180;-75
2021/08/31 12:17:59;;;;;;;2.30;2.10;;;42.00;42.30;;;;;;5001081;28;20193;-74
2021/08/31 12:20:26;;;;;;;4.65;2.25;;;42.10;40.20;;;;;;5001021;28;20220;-73
2021/08/31 12:22:58;;;;;;;2.28;2.17;;;42.20;42.00;;;;;;5001912;28;20201;-73
2021/08/31 12:25:24;;;;;;;2.58;2.13;;;42.50;41.00;;;;;;5001863;28;20250;-73
2021/08/31 12:27:55;;;;;;;2.20;2.00;;;42.80;40.80;;;;;;5000873;28;20224;-74
2021/08/31 12:30:35;;;;;;;2.53;2.30;;;42.90;39.80;;;;;;4999464;28;20250;-74
2021/08/31 12:33:00;;;;;;;2.13;2.03;;;42.30;39.60;;;;;;5000883;28;20603;-74
2021/08/31 12:35:32;;;;;;;2.22;2.13;;;41.50;41.50;;;;;;5001304;28;20192;-72
2021/08/31 12:38:27;;;;;;;2.75;2.58;;;40.60;41.90;;;;;;4977742;28;20176;-72
2021/08/31 12:40:54;;;;;;;1.80;1.70;;;39.80;42.00;;;;;;5001591;28;20193;-72
2021/08/31 12:43:21;;;;;;;2.15;1.98;;;39.70;43.20;;;;;;4984820;28;20188;-72
2021/08/31 12:45:54;;;;;;;1.55;1.55;;;40.00;42.70;;;;;;5001510;28;20195;-72
2021/08/31 12:48:41;;;;;;;2.15;1.77;;;40.50;42.10;;;;;;5066812;28;20237;-72
2021/08/31 12:51:07;;;;;;;1.50;1.50;;;41.10;41.60;;;;;;5074194;28;20169;-72
2021/08/31 12:53:51;;;;;;;1.92;1.83;;;41.60;40.50;;;;;;5075543;28;20669;-72